Time;durP1;ratioP1;P1;durP2;ratioP2;P2;SDS_P1;SDS_P2;PMS_P1;PMS_P2;Temp;Humidity;BMP_temperature;BMP_pressure;BME280_temperature;BME280_humidity;BME280_pressure;Samples;Min_cycle;Max_cycle;Signal;HPM_P1;HPM_P2
2022/09/16 00:00:08;;;;;;;11.38;3.17;;;;;;;24.43;51.43;98954.72;5070032;28;20029;-42
2022/09/16 00:02:34;;;;;;;11.10;3.60;;;;;;;24.46;51.83;98964.94;5069798;28;20034;-45
2022/09/16 00:04:59;;;;;;;10.77;3.20;;;;;;;24.54;51.51;98968.84;5070177;28;20024;-45
2022/09/16 00:07:25;;;;;;;10.93;3.22;;;;;;;24.80;50.78;98960.75;5070286;28;20472;-44
2022/09/16 00:09:50;;;;;;;10.18;3.53;;;;;;;24.78;50.56;98955.63;5069695;28;20064;-44
2022/09/16 00:12:15;;;;;;;8.65;3.13;;;;;;;24.35;51.74;98948.13;5069799;28;20028;-46
2022/09/16 00:14:41;;;;;;;10.60;3.38;;;;;;;24.31;52.07;98944.44;5070155;28;20031;-45
2022/09/16 00:17:06;;;;;;;9.50;3.30;;;;;;;24.42;52.10;98953.09;5069769;28;20078;-44
2022/09/16 00:19:32;;;;;;;9.38;3.40;;;;;;;24.50;51.96;98946.91;5069734;28;20056;-44
2022/09/16 00:21:57;;;;;;;8.45;2.95;;;;;;;24.43;52.29;98943.84;5069962;28;20058;-45
2022/09/16 00:24:22;;;;;;;10.15;3.30;;;;;;;24.36;52.11;98944.28;5070035;28;20105;-46
2022/09/16 00:26:48;;;;;;;8.48;3.28;;;;;;;24.38;51.90;98938.53;5070025;28;20103;-44
2022/09/16 00:29:13;;;;;;;10.43;3.80;;;;;;;23.95;53.48;98939.13;5070004;28;20028;-44
2022/09/16 00:31:39;;;;;;;15.23;3.47;;;;;;;23.34;55.30;98928.69;5069379;28;20036;-45
2022/09/16 00:34:04;;;;;;;7.78;3.50;;;;;;;23.90;53.76;98936.56;5069769;28;20036;-44
2022/09/16 00:36:30;;;;;;;13.35;3.63;;;;;;;24.07;53.41;98950.25;5069978;28;20048;-43
2022/09/16 00:38:55;;;;;;;12.93;3.38;;;;;;;23.83;54.00;98944.34;5069274;28;20035;-45
2022/09/16 00:41:24;;;;;;;6.22;3.10;;;;;;;23.75;54.54;98946.66;5069792;28;20472;-46
2022/09/16 00:43:55;;;;;;;10.27;3.20;;;;;;;24.10;53.28;98949.59;5069923;28;20103;-44
2022/09/16 00:46:40;;;;;;;8.25;3.50;;;;;;;23.94;54.05;98953.84;5069896;28;20032;-44
2022/09/16 00:49:17;;;;;;;11.75;3.17;;;;;;;23.83;54.28;98947.84;5069669;28;20061;-43
2022/09/16 00:51:46;;;;;;;10.70;3.70;;;;;;;23.95;53.92;98947.28;5069516;28;20489;-43
2022/09/16 00:54:13;;;;;;;9.63;3.30;;;;;;;23.89;53.68;98940.38;5069861;28;20069;-44
2022/09/16 00:56:42;;;;;;;11.07;3.30;;;;;;;23.96;54.21;98952.41;5069822;28;20412;-43
2022/09/16 00:59:12;;;;;;;8.18;3.40;;;;;;;23.90;54.27;98942.00;5073223;28;20032;-44
2022/09/16 01:01:38;;;;;;;9.63;3.63;;;;;;;24.60;52.15;98956.72;5072885;28;20460;-45
2022/09/16 01:04:13;;;;;;;8.13;3.50;;;;;;;23.90;54.22;98956.38;5071128;28;20136;-43
2022/09/16 01:06:39;;;;;;;8.13;3.05;;;;;;;23.95;54.15;98964.41;5073029;28;20090;-45
2022/09/16 01:09:05;;;;;;;9.48;3.25;;;;;;;23.79;54.66;98972.13;5073043;28;20056;-45
2022/09/16 01:11:31;;;;;;;13.40;3.42;;;;;;;23.69;55.01;98968.84;5072970;28;20060;-45
2022/09/16 01:14:51;;;;;;;11.05;3.60;;;;;;;23.90;54.37;98966.44;5073057;28;20024;-44
2022/09/16 01:16:57;;;;;;;10.32;3.45;;;;;;;23.65;55.57;98965.16;5072192;28;20123;-43
2022/09/16 01:19:58;;;;;;;9.90;3.35;;;;;;;23.59;55.76;98969.91;5072665;28;20059;-47
2022/09/16 01:22:38;;;;;;;14.90;3.80;;;;;;;23.55;55.60;98971.59;5072643;28;20115;-45
2022/09/16 01:25:27;;;;;;;12.30;3.80;;;;;;;23.61;55.83;98982.03;5072820;28;20470;-45
2022/09/16 01:28:20;;;;;;;13.10;3.65;;;;;;;23.52;56.12;98978.47;5072363;28;20032;-45
2022/09/16 01:30:55;;;;;;;10.68;3.80;;;;;;;23.64;56.36;98977.09;5072805;28;20025;-44
2022/09/16 01:33:46;;;;;;;11.98;3.67;;;;;;;23.49;56.15;98986.41;5072760;28;20033;-47
2022/09/16 01:36:59;;;;;;;10.40;3.63;;;;;;;23.59;55.76;98961.75;5056222;28;20044;-45
2022/09/16 01:39:28;;;;;;;10.65;3.47;;;;;;;23.68;55.72;98969.94;5072425;28;20400;-41
2022/09/16 01:42:31;;;;;;;14.30;3.67;;;;;;;23.56;56.21;98970.50;5072347;28;20033;-42
2022/09/16 01:45:02;;;;;;;11.00;3.65;;;;;;;23.56;56.05;98963.16;5071991;28;20033;-46
2022/09/16 01:47:39;;;;;;;12.57;3.55;;;;;;;23.62;56.15;98963.84;5072294;28;20409;-44
2022/09/16 01:50:47;;;;;;;11.10;3.63;;;;;;;23.69;55.84;98960.69;5072355;28;20029;-43
2022/09/16 01:53:17;;;;;;;13.35;4.13;;;;;;;23.20;57.62;98960.47;5071676;28;20036;-46
2022/09/16 01:55:58;;;;;;;13.82;4.28;;;;;;;23.07;57.93;98961.31;5071884;28;20531;-46
2022/09/16 01:58:41;;;;;;;13.05;3.85;;;;;;;23.17;57.46;98951.03;5072221;28;20044;-47
2022/09/16 02:01:34;;;;;;;12.40;4.05;;;;;;;23.22;57.32;98960.97;5072038;28;20028;-44
2022/09/16 02:04:05;;;;;;;11.40;3.75;;;;;;;23.39;55.96;98955.69;5066370;28;20044;-46
2022/09/16 02:06:32;;;;;;;11.80;3.35;;;;;;;23.36;55.77;98948.16;5071779;28;20021;-44
2022/09/16 02:09:08;;;;;;;13.00;3.60;;;;;;;23.89;54.14;98965.63;5070993;28;20017;-43
2022/09/16 02:11:37;;;;;;;9.57;3.53;;;;;;;23.70;54.92;98960.38;5071903;28;20028;-45
2022/09/16 02:14:04;;;;;;;11.70;3.83;;;;;;;23.60;55.52;98963.34;5071547;28;20442;-46
2022/09/16 02:16:58;;;;;;;10.20;3.72;;;;;;;23.63;55.58;98962.75;5071346;28;20093;-46
2022/09/16 02:19:30;;;;;;;9.25;3.63;;;;;;;23.51;55.44;98967.91;5071620;28;20117;-44
2022/09/16 02:22:00;;;;;;;11.23;3.60;;;;;;;23.57;55.10;98959.34;5071747;28;20023;-44
2022/09/16 02:24:28;;;;;;;12.60;3.78;;;;;;;23.67;55.73;98971.88;5071365;28;20093;-46
2022/09/16 02:26:59;;;;;;;10.80;3.83;;;;;;;23.99;54.58;98968.09;5071553;28;20081;-44
2022/09/16 02:29:31;;;;;;;9.82;3.80;;;;;;;24.42;53.09;98980.28;5071308;28;20017;-46
2022/09/16 02:32:00;;;;;;;10.50;3.55;;;;;;;24.10;53.82;98990.34;5071212;28;20021;-44
2022/09/16 02:34:34;;;;;;;16.02;3.92;;;;;;;23.49;55.12;98986.41;5071553;28;20024;-43
2022/09/16 02:37:07;;;;;;;15.30;4.13;;;;;;;23.28;55.41;98967.09;5071586;28;20034;-48
2022/09/16 02:39:37;;;;;;;10.48;3.47;;;;;;;23.32;55.35;98985.19;5071094;28;20028;-44
2022/09/16 02:42:03;;;;;;;9.02;3.40;;;;;;;23.30;55.06;98992.78;5071242;28;20050;-46
2022/09/16 02:44:28;;;;;;;12.75;3.80;;;;;;;23.16;55.89;98997.47;5071082;28;20024;-45
2022/09/16 02:47:05;;;;;;;9.25;3.60;;;;;;;22.97;56.63;99000.28;5071071;28;20328;-44
2022/09/16 02:49:46;;;;;;;8.77;3.60;;;;;;;23.68;54.77;99013.41;5070824;28;20024;-46
2022/09/16 02:52:36;;;;;;;15.25;4.00;;;;;;;23.47;54.55;99005.72;5070981;28;20028;-46
2022/09/16 02:55:23;;;;;;;9.98;4.00;;;;;;;23.41;54.58;99005.03;5071221;28;20028;-45
2022/09/16 02:57:49;;;;;;;12.00;4.15;;;;;;;22.67;57.35;98999.00;5070901;28;20024;-41
2022/09/16 03:00:15;;;;;;;11.07;4.10;;;;;;;22.70;57.95;99011.97;5070640;28;20024;-43
2022/09/16 03:02:41;;;;;;;13.77;3.60;;;;;;;22.61;57.75;99004.50;5070666;28;20099;-44
2022/09/16 03:05:08;;;;;;;8.23;3.67;;;;;;;22.68;57.34;98984.34;5071156;28;20492;-44
2022/09/16 03:07:34;;;;;;;10.93;3.90;;;;;;;22.88;56.62;98989.34;5065888;28;20103;-44
2022/09/16 03:10:01;;;;;;;12.32;3.83;;;;;;;23.47;54.65;98986.72;5048278;28;20025;-45
2022/09/16 03:12:35;;;;;;;9.20;3.70;;;;;;;23.77;53.68;98985.19;5045444;28;20017;-44
2022/09/16 03:15:19;;;;;;;14.68;4.60;;;;;;;23.93;53.47;98993.81;5050473;28;20028;-45
2022/09/16 03:18:07;;;;;;;9.85;3.75;;;;;;;23.95;53.70;98996.19;5050413;28;20039;-45
2022/09/16 03:20:43;;;;;;;40.80;23.63;;;;;;;24.04;53.19;98990.81;5029448;28;20049;-44
2022/09/16 03:23:29;;;;;;;39.38;25.05;;;;;;;24.02;53.15;98990.31;5030563;28;20039;-43
2022/09/16 03:26:24;;;;;;;12.40;4.63;;;;;;;23.54;54.82;98989.03;5030502;28;20029;-42
2022/09/16 03:28:57;;;;;;;13.02;4.05;;;;;;;23.70;54.61;98986.72;5030207;28;20029;-44
2022/09/16 03:31:37;;;;;;;15.27;4.30;;;;;;;23.46;55.05;98985.13;5030403;28;20033;-42
2022/09/16 03:34:08;;;;;;;21.25;4.63;;;;;;;23.38;55.27;98985.84;5030148;28;20045;-42
2022/09/16 03:36:44;;;;;;;9.48;4.25;;;;;;;23.43;54.89;98986.53;5030552;28;20135;-44
2022/09/16 03:39:11;;;;;;;11.55;3.97;;;;;;;23.42;54.85;98984.94;5042670;28;20020;-44
2022/09/16 03:41:38;;;;;;;12.35;4.88;;;;;;;23.49;54.70;98989.91;5069785;28;20025;-44
2022/09/16 03:44:03;;;;;;;47.83;30.85;;;;;;;23.39;54.87;98995.59;5068143;28;20056;-43
2022/09/16 03:46:29;;;;;;;38.70;22.83;;;;;;;23.48;54.69;98990.25;5069826;28;20091;-44
2022/09/16 03:48:56;;;;;;;19.00;10.50;;;;;;;23.56;54.33;98994.94;5069581;28;20024;-43
2022/09/16 03:51:22;;;;;;;15.85;5.80;;;;;;;23.58;54.46;98985.38;5069138;28;20024;-42
2022/09/16 03:53:51;;;;;;;13.25;4.82;;;;;;;23.62;54.50;98977.41;5069856;28;20048;-42
2022/09/16 03:56:17;;;;;;;14.88;4.55;;;;;;;23.63;54.02;98962.75;5068916;28;20099;-42
2022/09/16 03:58:42;;;;;;;15.80;4.93;;;;;;;23.49;54.49;98961.97;5069848;28;20056;-44
2022/09/16 04:01:08;;;;;;;16.70;4.78;;;;;;;23.28;54.62;98951.59;5068712;28;20013;-44
2022/09/16 04:03:36;;;;;;;14.75;5.90;;;;;;;23.23;54.53;98959.88;5068420;28;20412;-43
2022/09/16 04:06:02;;;;;;;15.55;5.32;;;;;;;23.33;55.06;98970.47;5068931;28;20485;-42
2022/09/16 04:08:27;;;;;;;17.27;4.82;;;;;;;23.41;54.79;98960.81;5069457;28;20024;-43
2022/09/16 04:10:58;;;;;;;13.27;4.93;;;;;;;23.30;55.01;98965.66;5069502;28;20032;-43
2022/09/16 04:13:24;;;;;;;11.93;4.30;;;;;;;23.14;54.97;98988.84;5069952;28;20111;-44
2022/09/16 04:15:49;;;;;;;17.00;5.32;;;;;;;22.56;56.52;98974.81;5069807;28;20473;-42
2022/09/16 04:18:15;;;;;;;19.05;4.38;;;;;;;22.73;56.27;98986.94;5069865;28;20057;-44
2022/09/16 04:20:41;;;;;;;13.90;4.90;;;;;;;22.96;53.94;98983.22;5069666;28;20096;-43
2022/09/16 04:23:07;;;;;;;14.40;4.22;;;;;;;23.22;54.60;98988.09;5069612;28;20461;-47
2022/09/16 04:25:32;;;;;;;18.63;4.85;;;;;;;23.46;54.59;98987.84;5068078;28;20074;-46
2022/09/16 04:27:58;;;;;;;19.92;4.80;;;;;;;23.56;54.40;98986.78;5043342;28;20056;-44
2022/09/16 04:30:24;;;;;;;10.55;4.43;;;;;;;23.75;53.73;98984.69;5030215;28;20052;-42
2022/09/16 04:32:54;;;;;;;12.63;4.57;;;;;;;23.83;53.84;98985.09;5031736;28;20116;-42
2022/09/16 04:35:20;;;;;;;18.70;5.45;;;;;;;23.87;54.04;98986.06;5044291;28;20021;-43
2022/09/16 04:37:46;;;;;;;13.55;4.90;;;;;;;23.92;53.96;98985.97;5053738;28;20424;-44
2022/09/16 04:40:11;;;;;;;24.00;4.78;;;;;;;23.73;54.45;98994.28;5053636;28;20025;-46
2022/09/16 04:42:37;;;;;;;21.00;5.70;;;;;;;24.00;54.12;98987.91;5053661;28;20020;-46
2022/09/16 04:45:03;;;;;;;24.65;5.93;;;;;;;23.98;53.75;98996.38;5053627;28;20147;-45
2022/09/16 04:47:28;;;;;;;20.27;5.20;;;;;;;24.20;52.96;98997.47;5052829;28;20445;-46
2022/09/16 04:49:54;;;;;;;19.15;5.53;;;;;;;24.40;52.47;98990.69;5052597;28;20036;-46
2022/09/16 04:52:19;;;;;;;20.23;4.93;;;;;;;24.36;51.81;98992.41;5050905;28;20118;-44
2022/09/16 04:54:44;;;;;;;16.63;5.20;;;;;;;23.95;52.88;98991.56;5051950;28;20036;-44
2022/09/16 04:57:10;;;;;;;26.25;5.13;;;;;;;23.91;52.54;98998.75;5051531;28;20229;-43
2022/09/16 04:59:35;;;;;;;21.83;5.63;;;;;;;23.68;53.42;98999.81;5052439;28;20025;-44
2022/09/16 05:02:01;;;;;;;21.55;5.45;;;;;;;23.86;53.54;99000.78;5051824;28;20342;-44
2022/09/16 05:04:36;;;;;;;25.40;5.38;;;;;;;24.18;52.10;99005.94;5051347;28;20489;-44
2022/09/16 05:07:01;;;;;;;14.55;5.47;;;;;;;23.58;53.60;99020.66;5043828;28;20417;-44
2022/09/16 05:09:27;;;;;;;25.63;13.80;;;;;;;23.20;54.15;99015.53;5034744;28;20033;-44
2022/09/16 05:11:53;;;;;;;17.60;5.40;;;;;;;23.33;53.73;99026.69;5032743;28;20055;-44
2022/09/16 05:14:18;;;;;;;32.63;15.57;;;;;;;23.75;52.19;99030.88;5032196;28;20387;-44
2022/09/16 05:16:44;;;;;;;22.05;13.07;;;;;;;24.08;51.52;99014.31;5032808;28;20501;-43
2022/09/16 05:19:12;;;;;;;42.00;20.35;;;;;;;24.63;50.30;99021.34;5032319;28;20453;-44
2022/09/16 05:21:38;;;;;;;25.00;5.68;;;;;;;25.00;49.34;99016.50;5032640;28;20495;-45
2022/09/16 05:24:09;;;;;;;14.13;4.90;;;;;;;25.32;48.08;99009.88;5031869;28;20080;-46
2022/09/16 05:26:37;;;;;;;16.30;4.40;;;;;;;25.62;47.74;98999.13;5031990;28;20505;-44
2022/09/16 05:29:09;;;;;;;16.90;5.00;;;;;;;25.53;47.70;99003.75;5032513;28;20075;-46
2022/09/16 05:31:37;;;;;;;16.00;4.40;;;;;;;25.82;47.32;98994.16;5032149;28;20031;-44
2022/09/16 05:34:04;;;;;;;21.23;5.25;;;;;;;26.32;46.32;98988.91;5032380;28;20112;-45
2022/09/16 05:36:33;;;;;;;20.58;4.60;;;;;;;26.88;45.24;98982.56;5032630;28;20041;-43
2022/09/16 05:38:59;;;;;;;15.93;4.30;;;;;;;27.24;44.51;98992.91;5032523;28;20031;-44
2022/09/16 05:41:25;;;;;;;14.60;4.70;;;;;;;27.71;43.56;98993.84;5032252;28;20025;-43
2022/09/16 05:43:51;;;;;;;14.20;4.20;;;;;;;28.22;41.98;98992.53;5032099;28;20060;-45
2022/09/16 05:46:21;;;;;;;20.17;4.55;;;;;;;28.65;40.71;98987.69;5032275;28;20059;-44
2022/09/16 05:48:48;;;;;;;17.45;4.75;;;;;;;28.70;40.46;98987.47;5031965;28;20427;-46
2022/09/16 05:51:22;;;;;;;15.55;4.88;;;;;;;28.98;39.96;98984.03;5031840;28;20550;-45
2022/09/16 05:53:49;;;;;;;14.68;4.80;;;;;;;29.21;39.43;98985.16;5031726;28;20563;-43
2022/09/16 05:56:20;;;;;;;16.70;4.60;;;;;;;29.10;39.72;98989.47;5032092;28;20025;-45
2022/09/16 05:58:47;;;;;;;23.40;4.78;;;;;;;28.98;39.68;98984.03;5032190;28;20026;-47
2022/09/16 06:01:17;;;;;;;20.40;4.50;;;;;;;29.24;39.41;98978.97;5032631;28;20025;-44
2022/09/16 06:03:44;;;;;;;22.13;4.70;;;;;;;29.38;39.02;98992.28;5051500;28;20028;-47
2022/09/16 06:06:23;;;;;;;21.75;5.32;;;;;;;29.82;38.61;98984.13;5051694;28;20025;-44
2022/09/16 06:08:50;;;;;;;24.98;5.68;;;;;;;29.34;39.22;98985.91;5051915;28;20484;-46
2022/09/16 06:11:15;;;;;;;19.00;5.43;;;;;;;29.32;39.40;98984.66;5051495;28;20059;-45
2022/09/16 06:13:41;;;;;;;17.25;4.90;;;;;;;29.46;39.41;98985.06;5051310;28;20028;-44
2022/09/16 06:16:08;;;;;;;14.73;5.15;;;;;;;29.89;38.86;98983.53;5051551;28;20043;-44
2022/09/16 06:18:35;;;;;;;15.75;5.22;;;;;;;30.31;37.99;98976.75;5051448;28;20053;-47
2022/09/16 06:21:09;;;;;;;17.38;4.82;;;;;;;30.64;37.97;98978.38;5051947;28;20052;-47
2022/09/16 06:23:36;;;;;;;21.52;5.43;;;;;;;31.08;37.26;98962.50;5051297;28;20409;-47
2022/09/16 06:26:07;;;;;;;16.50;4.75;;;;;;;31.20;35.44;98961.56;5051829;28;20021;-46
2022/09/16 06:28:33;;;;;;;14.88;4.63;;;;;;;30.91;35.89;98969.19;5051883;28;20025;-45
2022/09/16 06:31:10;;;;;;;16.13;4.75;;;;;;;31.17;35.42;98978.81;5051517;28;20079;-44
2022/09/16 06:33:36;;;;;;;15.55;5.60;;;;;;;31.60;34.78;98979.69;5051095;28;20477;-46
2022/09/16 06:36:06;;;;;;;19.83;6.15;;;;;;;31.63;34.76;98976.22;5051588;28;20028;-47
2022/09/16 06:38:32;;;;;;;20.17;6.82;;;;;;;32.06;33.79;98976.22;5051249;28;20058;-44
2022/09/16 06:41:03;;;;;;;14.98;5.03;;;;;;;32.12;33.62;98972.00;5051057;28;20021;-43
2022/09/16 06:43:29;;;;;;;18.52;5.18;;;;;;;31.87;34.20;98980.59;5050945;28;20025;-46
2022/09/16 06:45:59;;;;;;;15.73;4.82;;;;;;;31.87;34.29;98955.84;5050950;28;20449;-45
2022/09/16 06:48:26;;;;;;;17.58;4.65;;;;;;;32.44;33.60;98960.75;5051718;28;20148;-44
2022/09/16 06:51:03;;;;;;;22.38;5.70;;;;;;;31.78;34.45;98960.78;5050961;28;20036;-44
2022/09/16 06:53:29;;;;;;;24.10;5.40;;;;;;;32.85;32.32;98963.75;5050812;28;20028;-45
2022/09/16 06:55:54;;;;;;;17.67;4.75;;;;;;;32.89;32.00;98986.63;5049977;28;20029;-45
2022/09/16 06:58:20;;;;;;;15.85;5.25;;;;;;;31.44;34.07;98982.50;5051229;28;20025;-43
2022/09/16 07:00:45;;;;;;;29.67;7.85;;;;;;;31.45;35.05;98977.78;5050775;28;20020;-48
2022/09/16 07:03:11;;;;;;;19.10;5.22;;;;;;;31.42;35.00;98975.78;5050540;28;20020;-43
2022/09/16 07:05:36;;;;;;;22.27;4.50;;;;;;;31.77;34.49;98979.22;5050757;28;20025;-44
2022/09/16 07:08:02;;;;;;;21.88;5.50;;;;;;;31.93;34.35;98975.59;5050644;28;20499;-43
2022/09/16 07:10:28;;;;;;;16.88;4.25;;;;;;;31.84;34.85;98975.03;5051052;28;20028;-44
2022/09/16 07:12:54;;;;;;;11.77;3.92;;;;;;;31.53;35.45;98982.31;5050746;28;20095;-46
2022/09/16 07:15:20;;;;;;;15.65;4.10;;;;;;;32.47;34.05;98990.28;5050588;28;20481;-46
2022/09/16 07:17:45;;;;;;;14.77;3.60;;;;;;;33.07;32.56;98990.44;5050320;28;20050;-45
2022/09/16 07:20:10;;;;;;;12.38;3.30;;;;;;;33.53;32.23;98991.41;5049101;28;20128;-44
2022/09/16 07:22:36;;;;;;;17.52;3.70;;;;;;;33.41;32.10;99004.28;5050402;28;20039;-43
2022/09/16 07:25:01;;;;;;;15.02;3.53;;;;;;;33.56;31.65;98996.97;5050459;28;20025;-45
2022/09/16 07:27:28;;;;;;;14.73;3.92;;;;;;;34.16;31.13;98984.25;5050501;28;20025;-44
2022/09/16 07:29:55;;;;;;;15.13;3.65;;;;;;;34.50;31.31;98979.41;5050572;28;20075;-45
2022/09/16 07:32:21;;;;;;;17.15;3.50;;;;;;;34.85;30.08;98967.03;5050414;28;20028;-43
2022/09/16 07:34:46;;;;;;;11.43;4.13;;;;;;;35.36;29.27;98963.34;5050778;28;20024;-44
2022/09/16 07:37:12;;;;;;;17.88;3.78;;;;;;;35.79;28.51;98968.22;5050652;28;20114;-42
2022/09/16 07:39:38;;;;;;;26.20;4.95;;;;;;;35.40;29.39;98974.44;5050497;28;20420;-44
2022/09/16 07:42:03;;;;;;;20.67;5.00;;;;;;;34.88;30.55;98974.56;5050734;28;20017;-46
2022/09/16 07:44:29;;;;;;;12.50;3.80;;;;;;;35.63;28.82;98976.88;5050366;28;20091;-43
2022/09/16 07:46:54;;;;;;;10.13;3.72;;;;;;;36.35;27.93;98974.25;5050414;28;20056;-46
2022/09/16 07:49:20;;;;;;;16.13;4.32;;;;;;;36.79;27.30;98989.66;5050363;28;20447;-45
2022/09/16 07:51:45;;;;;;;23.15;5.50;;;;;;;36.79;27.14;98987.69;5050148;28;20024;-45
2022/09/16 07:54:14;;;;;;;17.95;4.43;;;;;;;37.41;26.44;98985.50;5050004;28;20044;-48
2022/09/16 07:56:41;;;;;;;12.95;3.88;;;;;;;37.77;25.66;98990.91;5050556;28;20028;-47
2022/09/16 07:59:11;;;;;;;16.52;4.53;;;;;;;37.72;25.91;98986.59;5049902;28;20040;-47
2022/09/16 08:01:36;;;;;;;12.57;4.28;;;;;;;37.07;26.17;98971.34;5050364;28;20067;-47
2022/09/16 08:04:03;;;;;;;20.40;4.90;;;;;;;37.16;26.20;98968.97;5049921;28;20021;-43
2022/09/16 08:06:30;;;;;;;14.82;4.15;;;;;;;37.00;26.48;98972.19;5049919;28;20447;-47
2022/09/16 08:08:58;;;;;;;11.43;3.75;;;;;;;36.65;26.51;98968.28;5053962;28;20032;-45
2022/09/16 08:11:25;;;;;;;12.73;3.90;;;;;;;37.46;26.01;98967.69;5054471;28;20104;-46
2022/09/16 08:13:51;;;;;;;14.50;3.80;;;;;;;37.96;25.31;98970.16;5054124;28;20024;-45
2022/09/16 08:16:19;;;;;;;12.90;3.50;;;;;;;37.90;25.36;98975.34;5054077;28;20083;-44
2022/09/16 08:18:46;;;;;;;16.67;4.18;;;;;;;38.31;25.16;98971.91;5054007;28;20492;-43
2022/09/16 08:21:16;;;;;;;13.88;3.65;;;;;;;38.50;25.56;98962.22;5053795;28;20024;-46
2022/09/16 08:23:42;;;;;;;12.05;3.83;;;;;;;38.83;24.90;98954.34;5054275;28;20021;-44
2022/09/16 08:26:09;;;;;;;17.70;4.10;;;;;;;38.97;24.77;98958.97;5054010;28;20471;-44
2022/09/16 08:28:37;;;;;;;15.50;4.00;;;;;;;38.78;24.95;98949.25;5053749;28;20029;-45
2022/09/16 08:31:03;;;;;;;20.47;4.40;;;;;;;38.24;25.33;98948.97;5053795;28;20028;-44
2022/09/16 08:33:29;;;;;;;13.95;4.80;;;;;;;39.09;24.49;98947.34;5053554;28;20447;-42
2022/09/16 08:36:04;;;;;;;17.65;3.90;;;;;;;39.38;23.75;98941.41;5053807;28;20082;-44
2022/09/16 08:38:30;;;;;;;12.50;3.72;;;;;;;39.39;23.12;98931.06;5053325;28;20028;-46
2022/09/16 08:41:05;;;;;;;13.52;3.50;;;;;;;39.59;23.41;98928.44;5053510;28;20484;-44
2022/09/16 08:43:42;;;;;;;14.60;3.90;;;;;;;39.89;23.31;98935.94;5053394;28;20064;-47
2022/09/16 08:46:19;;;;;;;17.95;4.13;;;;;;;40.32;22.35;98929.63;5053320;28;20055;-42
2022/09/16 08:48:57;;;;;;;15.32;4.45;;;;;;;39.78;22.14;98938.88;5053300;28;20032;-44
2022/09/16 08:51:23;;;;;;;19.58;4.35;;;;;;;38.93;24.05;98944.31;5053330;28;20029;-46
2022/09/16 08:53:58;;;;;;;11.57;4.03;;;;;;;38.84;23.25;98938.44;5053039;28;20025;-45
2022/09/16 08:56:26;;;;;;;16.35;3.80;;;;;;;38.84;23.69;98927.34;5053583;28;20029;-45
2022/09/16 08:58:59;;;;;;;13.73;4.50;;;;;;;39.78;22.72;98924.16;5052972;28;20576;-45
2022/09/16 09:01:42;;;;;;;15.68;4.88;;;;;;;40.40;22.33;98908.84;5052704;28;20059;-47
2022/09/16 09:04:08;;;;;;;19.23;3.97;;;;;;;40.82;21.68;98898.09;5052306;28;20114;-45
2022/09/16 09:06:33;;;;;;;13.32;3.65;;;;;;;41.03;21.75;98898.84;5052711;28;20426;-44
2022/09/16 09:09:48;;;;;;;17.80;4.07;;;;;;;41.28;21.48;98900.34;5052797;28;20031;-47
2022/09/16 09:12:23;;;;;;;13.18;3.60;;;;;;;40.69;21.20;98901.91;5026632;28;20037;-45
2022/09/16 09:15:22;;;;;;;11.52;3.40;;;;;;;40.25;21.31;98888.78;5052424;28;20021;-46
2022/09/16 09:18:01;;;;;;;14.23;3.50;;;;;;;40.36;21.64;98894.16;5052347;28;20104;-44
2022/09/16 09:20:53;;;;;;;13.63;3.30;;;;;;;40.42;21.03;98906.41;5053183;28;20433;-45
2022/09/16 09:23:38;;;;;;;15.52;3.50;;;;;;;40.40;21.74;98894.91;5052678;28;20194;-46
2022/09/16 09:26:19;;;;;;;15.50;3.58;;;;;;;39.38;22.77;98887.75;5052444;28;20106;-44
2022/09/16 09:28:52;;;;;;;16.33;3.28;;;;;;;39.62;22.06;98892.19;5052119;28;20035;-46
2022/09/16 09:31:33;;;;;;;13.02;3.53;;;;;;;40.00;21.83;98902.34;5052258;28;20021;-46
2022/09/16 09:34:36;;;;;;;14.70;3.78;;;;;;;39.61;22.65;98887.81;5052173;28;20112;-43
2022/09/16 09:37:07;;;;;;;14.52;3.53;;;;;;;39.56;22.01;98882.72;5052435;28;20035;-45
2022/09/16 09:39:41;;;;;;;12.38;3.83;;;;;;;38.78;22.95;98876.97;5052527;28;20025;-45
2022/09/16 09:42:28;;;;;;;17.48;3.53;;;;;;;38.38;23.41;98873.03;5052459;28;20115;-45
2022/09/16 09:45:03;;;;;;;14.27;3.38;;;;;;;38.13;23.79;98866.50;5051896;28;20082;-46
2022/09/16 09:47:41;;;;;;;12.38;3.42;;;;;;;37.80;24.06;98861.66;5052225;28;20051;-45
2022/09/16 09:50:29;;;;;;;12.32;3.17;;;;;;;38.33;23.37;98863.16;5052074;28;20147;-46
2022/09/16 09:53:18;;;;;;;18.35;3.83;;;;;;;38.84;23.19;98852.28;5051656;28;20032;-49
2022/09/16 09:55:43;;;;;;;19.52;3.53;;;;;;;38.87;23.36;98852.22;5051645;28;20058;-47
2022/09/16 09:58:14;;;;;;;12.88;3.63;;;;;;;38.88;22.88;98844.66;5051781;28;20448;-45
2022/09/16 10:00:40;;;;;;;12.60;3.33;;;;;;;38.37;23.72;98844.47;5051933;28;20108;-46
2022/09/16 10:03:17;;;;;;;14.65;3.42;;;;;;;38.59;23.61;98841.47;5051448;28;20059;-45
2022/09/16 10:05:44;;;;;;;15.40;3.47;;;;;;;38.60;22.52;98843.06;5051960;28;20045;-46
2022/09/16 10:08:31;;;;;;;13.70;3.92;;;;;;;38.43;22.77;98842.81;5051477;28;20052;-44
2022/09/16 10:11:02;;;;;;;14.63;4.20;;;;;;;38.65;23.16;98834.25;5051695;28;20476;-45
2022/09/16 10:13:29;;;;;;;20.60;3.40;;;;;;;38.62;22.32;98835.09;5051525;28;20114;-44
2022/09/16 10:16:13;;;;;;;9.65;3.20;;;;;;;38.02;22.95;98843.59;5051463;28;20536;-46
2022/09/16 10:18:39;;;;;;;16.10;3.88;;;;;;;37.45;23.26;98832.94;5050878;28;20159;-45
2022/09/16 10:21:16;;;;;;;13.98;3.63;;;;;;;36.13;24.63;98827.47;5051236;28;20473;-43
2022/09/16 10:23:52;;;;;;;12.52;3.20;;;;;;;36.29;24.50;98816.03;5051519;28;20092;-44
2022/09/16 10:26:23;;;;;;;14.20;3.15;;;;;;;36.60;24.59;98819.88;5051518;28;20025;-47
2022/09/16 10:28:59;;;;;;;13.43;3.30;;;;;;;37.08;23.56;98823.25;5051354;28;20028;-43
2022/09/16 10:31:29;;;;;;;12.75;3.15;;;;;;;37.67;23.36;98812.19;5050578;28;20155;-45
2022/09/16 10:33:55;;;;;;;13.82;3.35;;;;;;;37.90;23.18;98827.44;5051697;28;20457;-45
2022/09/16 10:36:25;;;;;;;19.48;3.47;;;;;;;38.08;22.47;98832.84;5051247;28;20404;-45
2022/09/16 10:38:59;;;;;;;16.55;3.40;;;;;;;38.32;22.72;98828.25;5049574;28;20020;-45
2022/09/16 10:41:34;;;;;;;11.57;3.55;;;;;;;38.49;22.01;98823.69;5050728;28;20369;-47
2022/09/16 10:44:12;;;;;;;16.40;3.45;;;;;;;38.66;22.23;98824.72;5051075;28;20051;-48
2022/09/16 10:46:50;;;;;;;9.73;3.22;;;;;;;39.12;22.20;98820.56;5051021;28;20037;-46
2022/09/16 10:49:21;;;;;;;13.70;3.47;;;;;;;39.41;22.61;98817.34;5050974;28;20484;-47
2022/09/16 10:51:47;;;;;;;17.85;3.28;;;;;;;39.65;22.05;98820.97;5050816;28;20032;-46
2022/09/16 10:54:24;;;;;;;11.70;3.20;;;;;;;39.56;21.42;98815.16;5050958;28;20025;-45
2022/09/16 10:56:50;;;;;;;14.88;2.90;;;;;;;39.70;21.09;98806.56;5050795;28;20473;-46
2022/09/16 10:59:16;;;;;;;12.77;3.58;;;;;;;39.72;20.53;98806.13;5050752;28;20021;-45
2022/09/16 11:01:56;;;;;;;10.32;2.90;;;;;;;39.77;20.52;98806.44;5048870;28;20187;-46
2022/09/16 11:04:38;;;;;;;12.02;3.25;;;;;;;39.81;21.36;98803.59;5050798;28;20493;-43
2022/09/16 11:07:23;;;;;;;14.88;3.92;;;;;;;40.06;20.89;98800.38;5050855;28;20047;-45
2022/09/16 11:10:36;;;;;;;13.38;3.97;;;;;;;39.91;21.10;98794.31;5050784;28;20024;-44
2022/09/16 11:13:04;;;;;;;15.07;3.88;;;;;;;39.08;21.32;98795.56;5013625;28;20042;-44
2022/09/16 11:15:42;;;;;;;;;;;;;;;39.14;21.37;98787.53;5051187;28;20052;-46
2022/09/16 11:18:16;;;;;;;15.23;4.10;;;;;;;39.22;21.91;98782.66;5050332;28;20015;-47
2022/09/16 11:21:06;;;;;;;14.07;3.80;;;;;;;39.62;21.32;98774.50;5050335;28;20074;-46
2022/09/16 11:23:41;;;;;;;13.32;3.50;;;;;;;39.60;20.31;98776.91;5050214;28;20044;-47
2022/09/16 11:26:24;;;;;;;14.70;3.95;;;;;;;39.25;21.30;98767.91;5050374;28;20029;-47
2022/09/16 11:28:59;;;;;;;15.23;3.90;;;;;;;39.41;21.39;98764.47;5050092;28;20028;-47
2022/09/16 11:31:59;;;;;;;15.32;3.85;;;;;;;39.85;20.27;98760.56;5050273;28;20049;-46
2022/09/16 11:34:43;;;;;;;14.85;3.60;;;;;;;40.37;20.02;98764.78;5050521;28;20049;-46
2022/09/16 11:37:14;;;;;;;15.45;3.45;;;;;;;40.92;19.86;98764.44;5050404;28;20474;-48
2022/09/16 11:40:02;;;;;;;13.73;3.63;;;;;;;40.81;19.74;98759.88;5050535;28;20029;-45
2022/09/16 11:42:41;;;;;;;16.40;3.80;;;;;;;39.77;20.29;98745.19;5049849;28;20055;-45
2022/09/16 11:45:49;;;;;;;14.27;3.80;;;;;;;39.60;20.34;98749.06;5050261;28;20188;-44
2022/09/16 11:48:40;;;;;;;13.32;3.42;;;;;;;40.71;19.68;98744.16;5050361;28;20033;-45